createdAt,value
2022-09-17T00:02:59.914Z,12.2
2022-09-17T00:18:10.101Z,12.5
2022-09-17T00:33:20.469Z,12.6
2022-09-17T00:48:30.938Z,12.2
2022-09-17T01:03:40.631Z,12.2
2022-09-17T01:18:50.749Z,12.1
2022-09-17T01:34:01.041Z,12.1
2022-09-17T01:49:11.257Z,12
2022-09-17T02:04:21.351Z,11.9
2022-09-17T02:19:30.806Z,11.9
2022-09-17T02:34:41.111Z,11.8
2022-09-17T02:49:51.011Z,11.8
2022-09-17T03:05:00.656Z,11.6
2022-09-17T03:20:10.937Z,11.5
2022-09-17T03:35:20.997Z,11.3
2022-09-17T03:50:30.829Z,11.2
2022-09-17T04:05:40.803Z,11.1
2022-09-17T04:20:50.978Z,11.1
2022-09-17T04:36:02.605Z,11.1
2022-09-17T04:51:13.453Z,11.1
2022-09-17T05:06:23.838Z,11.2
2022-09-17T05:21:33.401Z,11.1
2022-09-17T05:36:43.562Z,11
2022-09-17T05:51:54.580Z,11
2022-09-17T06:07:04.705Z,10.9
2022-09-17T06:22:14.764Z,10.8
2022-09-17T06:37:24.959Z,10.8
2022-09-17T06:52:35.739Z,11.1
2022-09-17T07:07:46.583Z,11.1
2022-09-17T07:22:56.624Z,11.1
2022-09-17T07:38:06.860Z,11.3
2022-09-17T07:56:59.987Z,12.4
2022-09-17T08:12:12.273Z,11.9
2022-09-17T08:27:22.586Z,12.2
2022-09-17T08:42:32.865Z,12.5
2022-09-17T08:57:43.366Z,12.8
2022-09-17T09:12:53.812Z,13
2022-09-17T09:28:04.630Z,13.3
2022-09-17T09:43:14.959Z,13.7
2022-09-17T09:58:25.233Z,13.8
2022-09-17T10:13:36.232Z,14.1
2022-09-17T10:28:48.345Z,14.4
2022-09-17T10:43:58.389Z,14.6
2022-09-17T10:59:08.977Z,14.8
2022-09-17T11:14:19.180Z,14.9
2022-09-17T11:29:29.653Z,14.6
2022-09-17T11:44:39.834Z,14.4
2022-09-17T11:59:49.981Z,14.6
2022-09-17T12:15:00.152Z,14.4
2022-09-17T12:30:09.945Z,13.8
2022-09-17T12:45:19.828Z,13.1
2022-09-17T13:00:29.343Z,12.1
2022-09-17T13:15:39.391Z,12
2022-09-17T13:30:49.875Z,12
2022-09-17T13:45:59.936Z,11.8
2022-09-17T14:01:09.843Z,11.5
2022-09-17T14:16:20.045Z,11.6
2022-09-17T14:31:30.298Z,11.7
2022-09-17T14:46:40.924Z,12
2022-09-17T15:01:59.220Z,12
2022-09-17T15:17:09.741Z,11.8
2022-09-17T15:32:20.000Z,11.7
2022-09-17T15:47:29.916Z,11.9
2022-09-17T16:02:40.057Z,11.9
2022-09-17T16:17:50.874Z,11.8
2022-09-17T16:33:01.038Z,11.8
2022-09-17T16:48:11.215Z,11.8
2022-09-17T17:03:20.819Z,11.8
2022-09-17T17:18:31.281Z,11.8
2022-09-17T17:33:41.414Z,11.8
2022-09-17T17:48:51.269Z,11.7
2022-09-17T18:04:01.350Z,11.6
2022-09-17T18:19:12.100Z,11.5
2022-09-17T18:34:21.758Z,11.5
2022-09-17T18:49:32.043Z,11.6
2022-09-17T19:04:42.421Z,11.5
2022-09-17T19:19:52.037Z,11.4
2022-09-17T19:35:01.953Z,11.5
2022-09-17T19:50:12.513Z,11.4
2022-09-17T20:05:23.116Z,11.5
2022-09-17T20:20:33.621Z,11.6
2022-09-17T20:35:43.466Z,11.3
2022-09-17T20:50:53.685Z,11.1
2022-09-17T21:06:03.891Z,11.1
2022-09-17T21:21:13.760Z,11
2022-09-17T21:36:23.589Z,11
2022-09-17T21:51:33.498Z,11
2022-09-17T22:06:43.702Z,11
2022-09-17T22:21:53.907Z,11
2022-09-17T22:37:03.458Z,10.9
2022-09-17T22:52:13.431Z,10.7
2022-09-17T23:07:23.545Z,10.4
2022-09-17T23:22:33.404Z,10.3
2022-09-17T23:37:43.383Z,10.1
2022-09-17T23:52:52.987Z,10
